createdAt,value
2022-09-07T20:47:35.043Z,100099.78
2022-09-07T20:50:01.736Z,100107.47
2022-09-07T20:52:28.550Z,100105.88
2022-09-07T20:54:55.279Z,100105.47
2022-09-07T20:57:21.808Z,100101.03
2022-09-07T20:59:48.543Z,100096.59
2022-09-07T21:02:15.121Z,100082.47
2022-09-07T21:04:42.612Z,100085.63
2022-09-07T21:07:09.433Z,100084.81
2022-09-07T21:09:36.112Z,100078.75
2022-09-07T21:12:02.970Z,100088.41
2022-09-07T21:14:29.548Z,100087.25
2022-09-07T21:16:56.061Z,100084.84
2022-09-07T21:19:22.756Z,100085.63
2022-09-07T21:21:49.303Z,100068.28
2022-09-07T21:24:20.729Z,100081.81
2022-09-07T21:26:48.728Z,100078.00
2022-09-07T21:29:21.522Z,100078.41
2022-09-07T21:31:48.491Z,100086.44
2022-09-07T21:34:16.198Z,100086.03
2022-09-07T21:36:42.865Z,100092.13
2022-09-07T21:39:12.558Z,100087.22
2022-09-07T21:41:41.216Z,100098.47
2022-09-07T21:44:08.080Z,100095.31
2022-09-07T21:46:34.759Z,100099.00
2022-09-07T21:49:01.988Z,100099.44
2022-09-07T21:51:30.057Z,100094.22
2022-09-07T21:53:59.398Z,100086.47
2022-09-07T21:56:28.657Z,100092.94
2022-09-07T21:58:57.189Z,100087.25
2022-09-07T22:01:25.842Z,100091.38
2022-09-07T22:03:54.399Z,100087.72
2022-09-07T22:06:21.703Z,100081.59
2022-09-07T22:08:48.606Z,100078.47
2022-09-07T22:11:18.118Z,100063.09
2022-09-07T22:13:45.227Z,100063.84
2022-09-07T22:16:13.341Z,100083.22
2022-09-07T22:18:43.633Z,100073.00
2022-09-07T22:21:14.787Z,100075.47
2022-09-07T22:23:44.379Z,100068.25
2022-09-07T22:26:11.903Z,100071.56
2022-09-07T22:28:39.164Z,100071.88
2022-09-07T22:31:09.648Z,100074.28
2022-09-07T22:33:36.416Z,100071.47
2022-09-07T22:36:19.336Z,100061.41
2022-09-07T22:38:47.970Z,100067.44
2022-09-07T22:41:17.681Z,100055.28
2022-09-07T22:43:45.401Z,100050.81
2022-09-07T22:46:13.153Z,100046.09
2022-09-07T22:48:41.037Z,100039.66
2022-09-07T22:51:08.826Z,100041.19
2022-09-07T22:53:37.284Z,100044.41
2022-09-07T22:56:13.010Z,100048.47
2022-09-07T22:58:40.208Z,100046.81
2022-09-07T23:01:07.006Z,100045.19
2022-09-07T23:03:34.923Z,100039.53
2022-09-07T23:06:02.505Z,100040.34
2022-09-07T23:08:29.700Z,100039.50
2022-09-07T23:11:04.157Z,100041.06
2022-09-07T23:13:32.648Z,100037.13
2022-09-07T23:16:07.091Z,100029.97
2022-09-07T23:18:34.363Z,100031.00
2022-09-07T23:21:02.244Z,100031.50
2022-09-07T23:23:29.468Z,100026.75
2022-09-07T23:25:56.146Z,100023.31
2022-09-07T23:28:22.927Z,100027.88
2022-09-07T23:30:50.945Z,100021.47
2022-09-07T23:33:18.145Z,100021.88
2022-09-07T23:35:59.520Z,100021.09
2022-09-07T23:38:27.727Z,100005.69
2022-09-07T23:40:55.894Z,100006.94
2022-09-07T23:43:23.812Z,100004.53
2022-09-07T23:45:51.082Z,99996.00
2022-09-07T23:48:17.657Z,100003.25
2022-09-07T23:50:45.661Z,99997.25
2022-09-07T23:53:12.932Z,99994.84
2022-09-07T23:55:39.888Z,99987.22
2022-09-07T23:58:07.659Z,99977.94
